Time;durP1;ratioP1;P1;durP2;ratioP2;P2;SDS_P1;SDS_P2;PMS_P1;PMS_P2;Temp;Humidity;BMP_temperature;BMP_pressure;BME280_temperature;BME280_humidity;BME280_pressure;Samples;Min_cycle;Max_cycle;Signal;HPM_P1;HPM_P2
2021/07/30 00:02:40;;;;;;;8.43;4.78;;;29.20;32.80;;;;;;21177583;28;20484;-64
2021/07/30 00:12:42;;;;;;;7.70;5.30;;;29.20;33.20;;;;;;21176380;28;20133;-66
2021/07/30 00:22:44;;;;;;;7.65;4.57;;;29.10;33.40;;;;;;21175139;28;20059;-66
2021/07/30 00:32:45;;;;;;;8.13;5.15;;;29.10;32.60;;;;;;21174490;28;20062;-66
2021/07/30 00:42:49;;;;;;;6.55;4.70;;;29.10;32.30;;;;;;21172739;28;20043;-67
2021/07/30 00:52:52;;;;;;;9.25;4.43;;;29.10;32.60;;;;;;21173281;28;20140;-67
2021/07/30 01:02:56;;;;;;;6.85;4.10;;;29.00;32.50;;;;;;21172224;28;20500;-66
2021/07/30 01:12:57;;;;;;;6.03;4.68;;;28.80;32.80;;;;;;21172704;28;20047;-66
2021/07/30 01:23:00;;;;;;;10.60;6.50;;;28.70;33.00;;;;;;21175859;28;20079;-63
2021/07/30 01:33:02;;;;;;;8.48;4.55;;;28.60;33.50;;;;;;21170418;28;20096;-64
2021/07/30 01:43:05;;;;;;;7.18;4.88;;;28.60;33.60;;;;;;21167929;28;20406;-64
2021/07/30 01:53:07;;;;;;;9.45;5.68;;;28.50;34.30;;;;;;21167926;28;20043;-66
2021/07/30 02:03:10;;;;;;;8.93;4.93;;;28.40;34.10;;;;;;21166672;28;20179;-65
2021/07/30 02:23:32;;;;;;;7.13;4.57;;;28.30;34.10;;;;;;21164385;28;20056;-64
2021/07/30 02:33:34;;;;;;;7.35;4.45;;;28.20;34.20;;;;;;21165287;28;20526;-64
2021/07/30 02:43:38;;;;;;;5.40;3.75;;;28.10;34.40;;;;;;21164256;28;20057;-67
2021/07/30 02:53:41;;;;;;;13.82;9.23;;;28.00;33.70;;;;;;21163066;28;20051;-63
2021/07/30 03:03:43;;;;;;;7.35;4.47;;;27.80;33.40;;;;;;21163214;28;20047;-65
2021/07/30 03:13:46;;;;;;;5.00;3.75;;;27.70;33.40;;;;;;21162904;28;20047;-64
2021/07/30 03:23:52;;;;;;;6.15;4.18;;;27.60;33.60;;;;;;21163239;28;20047;-64
2021/07/30 03:33:54;;;;;;;6.07;4.55;;;27.50;33.80;;;;;;21154824;28;20081;-63
2021/07/30 03:43:57;;;;;;;5.80;4.35;;;27.40;33.90;;;;;;21161420;28;20043;-64
2021/07/30 03:54:02;;;;;;;7.30;4.85;;;27.30;33.70;;;;;;21161068;28;20059;-64
2021/07/30 04:04:23;;;;;;;7.00;4.30;;;27.20;33.70;;;;;;21160282;28;20055;-64
2021/07/30 04:14:44;;;;;;;5.18;4.22;;;27.10;34.30;;;;;;21174848;28;20059;-64
2021/07/30 04:24:59;;;;;;;9.70;6.22;;;26.80;34.40;;;;;;21174611;28;20043;-62
2021/07/30 04:35:11;;;;;;;7.97;4.90;;;26.70;34.70;;;;;;21175045;28;20089;-65
2021/07/30 04:45:22;;;;;;;;;;;26.60;34.90;;;;;;21173188;28;20047;-67
2021/07/30 04:55:29;;;;;;;7.20;4.75;;;26.40;34.80;;;;;;21172410;28;19920;-64
2021/07/30 05:05:32;;;;;;;10.55;6.18;;;26.40;34.90;;;;;;21172511;28;20408;-65
2021/07/30 05:15:36;;;;;;;8.52;5.10;;;26.30;34.90;;;;;;21172414;28;20044;-67
2021/07/30 05:25:40;;;;;;;7.10;5.10;;;26.10;35.00;;;;;;21169630;28;20519;-63
2021/07/30 05:35:43;;;;;;;7.72;4.90;;;26.10;35.50;;;;;;21169616;28;20484;-64
2021/07/30 05:45:48;;;;;;;7.75;5.82;;;26.10;35.40;;;;;;21168158;28;20051;-65
2021/07/30 05:55:52;;;;;;;7.75;4.97;;;26.10;35.50;;;;;;21167741;28;20130;-67
2021/07/30 06:05:53;;;;;;;12.40;4.80;;;26.10;35.50;;;;;;21167051;28;20051;-63
2021/07/30 06:15:56;;;;;;;7.88;5.75;;;25.90;35.90;;;;;;21165813;28;20050;-62
2021/07/30 06:25:58;;;;;;;7.95;5.55;;;26.00;35.80;;;;;;21165143;28;20124;-62
2021/07/30 06:36:03;;;;;;;11.93;5.40;;;26.10;35.70;;;;;;21163678;28;20083;-63
2021/07/30 06:46:05;;;;;;;10.13;5.55;;;26.10;36.00;;;;;;21163759;28;20504;-64
2021/07/30 06:56:12;;;;;;;9.23;5.53;;;26.20;35.90;;;;;;21144856;28;20052;-64
2021/07/30 07:06:15;;;;;;;8.90;4.97;;;26.90;35.20;;;;;;21162879;28;20055;-69
2021/07/30 07:16:20;;;;;;;8.82;5.75;;;27.40;34.50;;;;;;21162902;28;20412;-66
2021/07/30 07:26:22;;;;;;;11.65;5.30;;;28.20;33.50;;;;;;21161967;28;20096;-64
2021/07/30 07:36:24;;;;;;;7.10;4.90;;;29.10;32.60;;;;;;21161629;28;20134;-66
2021/07/30 07:46:26;;;;;;;5.45;4.88;;;29.70;31.50;;;;;;21170881;28;20050;-66
2021/07/30 07:56:28;;;;;;;7.28;4.82;;;30.20;31.10;;;;;;21159097;28;20052;-65
2021/07/30 08:06:30;;;;;;;6.63;4.85;;;30.60;30.60;;;;;;21176719;28;20494;-65
2021/07/30 08:16:33;;;;;;;5.25;4.45;;;31.00;30.10;;;;;;21175254;28;20055;-65
2021/07/30 08:26:35;;;;;;;5.82;5.22;;;31.40;29.40;;;;;;21174898;28;20052;-65
2021/07/30 08:36:39;;;;;;;8.25;5.30;;;31.50;29.00;;;;;;21156412;28;20111;-67
2021/07/30 08:46:46;;;;;;;9.68;6.60;;;31.80;29.10;;;;;;21173931;28;20047;-65
2021/07/30 08:56:50;;;;;;;8.40;5.55;;;31.80;29.30;;;;;;21172652;28;20043;-67
2021/07/30 09:06:55;;;;;;;6.10;5.50;;;31.90;29.00;;;;;;21172043;28;20047;-67
2021/07/30 09:16:58;;;;;;;5.72;4.50;;;31.90;28.60;;;;;;21172340;28;20043;-66
2021/07/30 09:27:00;;;;;;;49.75;11.55;;;32.20;28.10;;;;;;21176802;28;20043;-63
2021/07/30 09:37:06;;;;;;;7.43;5.35;;;32.50;31.00;;;;;;21172288;28;20048;-66
2021/07/30 09:47:14;;;;;;;8.02;5.63;;;32.60;29.30;;;;;;21169869;28;20443;-66
2021/07/30 09:57:22;;;;;;;7.95;5.40;;;32.60;28.20;;;;;;21168359;28;20056;-69
2021/07/30 10:07:26;;;;;;;10.60;5.25;;;32.60;28.10;;;;;;21167367;28;20050;-66
2021/07/30 10:17:33;;;;;;;7.35;5.25;;;32.60;27.20;;;;;;21165852;28;20047;-67
2021/07/30 10:27:43;;;;;;;6.20;4.90;;;32.70;27.20;;;;;;21164646;28;20058;-66
2021/07/30 10:37:47;;;;;;;7.57;5.07;;;32.70;26.50;;;;;;21163593;28;20055;-67
2021/07/30 10:48:15;;;;;;;8.15;7.35;;;32.70;25.80;;;;;;21163867;28;20047;-65
2021/07/30 10:58:19;;;;;;;5.45;4.70;;;33.00;25.60;;;;;;21150462;28;20074;-66
2021/07/30 11:08:21;;;;;;;6.30;4.30;;;32.60;25.30;;;;;;21163065;28;20048;-67
2021/07/30 11:18:26;;;;;;;5.25;4.45;;;32.60;25.70;;;;;;21167657;28;20060;-69
2021/07/30 11:28:28;;;;;;;7.93;4.78;;;32.80;25.30;;;;;;21193919;28;20462;-67
2021/07/30 11:38:53;;;;;;;7.18;5.50;;;32.90;25.00;;;;;;21192359;28;20086;-66
2021/07/30 11:48:56;;;;;;;5.68;5.15;;;33.00;24.50;;;;;;21179014;28;20426;-68
2021/07/30 11:58:59;;;;;;;6.13;5.15;;;33.10;24.20;;;;;;21177112;28;20050;-67
2021/07/30 12:09:01;;;;;;;5.82;4.50;;;33.30;24.00;;;;;;21158689;28;20051;-66
2021/07/30 12:19:03;;;;;;;5.82;5.20;;;33.30;24.10;;;;;;21176696;28;20086;-67
2021/07/30 12:29:06;;;;;;;5.38;4.70;;;33.60;23.70;;;;;;21173786;28;20130;-66
2021/07/30 12:39:09;;;;;;;5.47;4.65;;;33.70;23.00;;;;;;21173687;28;20093;-65
2021/07/30 12:49:12;;;;;;;7.13;4.90;;;33.80;22.70;;;;;;21173001;28;20089;-64
2021/07/30 12:59:14;;;;;;;7.85;4.82;;;33.70;22.90;;;;;;21172174;28;20051;-67
2021/07/30 13:09:17;;;;;;;4.60;4.20;;;34.00;21.80;;;;;;21171862;28;20048;-66
2021/07/30 13:19:19;;;;;;;5.43;4.55;;;34.20;19.90;;;;;;21151959;28;20048;-65
2021/07/30 13:29:22;;;;;;;4.55;3.60;;;34.20;18.70;;;;;;21168037;28;20047;-65
2021/07/30 13:39:24;;;;;;;4.35;3.38;;;34.40;18.40;;;;;;21147956;28;20085;-65
2021/07/30 13:49:27;;;;;;;4.90;4.25;;;34.50;17.10;;;;;;21148699;28;20104;-64
2021/07/30 13:59:30;;;;;;;8.20;6.90;;;34.60;17.80;;;;;;21166780;28;20058;-66
2021/07/30 14:09:37;;;;;;;4.15;3.70;;;34.70;18.10;;;;;;21167836;28;20048;-64
2021/07/30 14:19:40;;;;;;;4.70;3.28;;;34.60;17.50;;;;;;21166490;28;20047;-65
2021/07/30 14:29:42;;;;;;;4.75;3.72;;;34.70;17.40;;;;;;21165572;28;20388;-65
2021/07/30 14:39:43;;;;;;;3.80;3.40;;;34.60;17.60;;;;;;21164177;28;20047;-66
2021/07/30 14:49:45;;;;;;;5.45;4.28;;;34.70;17.30;;;;;;21163631;28;20058;-66
2021/07/30 14:59:46;;;;;;;4.00;3.60;;;34.70;16.70;;;;;;21162925;28;20093;-65
2021/07/30 15:09:48;;;;;;;4.95;4.18;;;34.90;17.30;;;;;;21163214;28;20048;-66
2021/07/30 15:19:50;;;;;;;5.30;3.90;;;34.80;18.30;;;;;;21162063;28;20055;-66
2021/07/30 15:29:52;;;;;;;4.93;4.07;;;34.80;17.70;;;;;;21143513;28;20055;-68
2021/07/30 15:39:53;;;;;;;6.28;3.70;;;35.00;18.60;;;;;;21161000;28;20047;-68
2021/07/30 15:49:55;;;;;;;7.45;4.85;;;34.90;18.60;;;;;;21161053;28;20040;-66
2021/07/30 15:59:57;;;;;;;4.70;4.30;;;34.90;19.30;;;;;;21160815;28;20055;-65
2021/07/30 16:09:58;;;;;;;5.20;4.68;;;34.60;19.90;;;;;;21173250;28;20043;-65
2021/07/30 16:20:00;;;;;;;6.80;5.38;;;34.70;20.50;;;;;;21174946;28;20048;-65
2021/07/30 16:30:03;;;;;;;5.25;4.63;;;34.60;20.50;;;;;;21174294;28;20051;-66
2021/07/30 16:40:05;;;;;;;5.75;5.22;;;34.50;21.50;;;;;;21174792;28;20062;-71
2021/07/30 16:50:07;;;;;;;7.13;5.88;;;34.50;21.70;;;;;;21173704;28;20067;-69
2021/07/30 17:00:10;;;;;;;6.70;5.40;;;34.40;22.50;;;;;;21173098;28;20048;-68
2021/07/30 17:10:12;;;;;;;8.15;5.88;;;34.50;22.30;;;;;;21152949;28;20126;-69
2021/07/30 17:20:13;;;;;;;9.30;5.63;;;34.30;23.20;;;;;;21154909;28;20129;-66
2021/07/30 17:30:15;;;;;;;5.82;5.28;;;34.10;23.20;;;;;;21179679;28;20072;-67
2021/07/30 17:40:17;;;;;;;6.10;5.15;;;34.00;23.60;;;;;;21136823;28;20090;-68
2021/07/30 17:50:19;;;;;;;7.43;5.70;;;33.90;23.70;;;;;;21167416;28;20047;-66
2021/07/30 18:00:20;;;;;;;6.30;5.32;;;33.80;23.90;;;;;;21147419;28;20058;-66
2021/07/30 18:10:23;;;;;;;6.32;5.45;;;33.70;23.90;;;;;;21165440;28;20449;-67
2021/07/30 18:20:24;;;;;;;14.35;12.13;;;33.60;23.80;;;;;;21165943;28;20056;-68
2021/07/30 18:30:26;;;;;;;6.63;5.00;;;33.50;23.50;;;;;;21163777;28;20039;-68
2021/07/30 18:40:29;;;;;;;6.22;4.70;;;33.40;23.90;;;;;;21163438;28;20055;-67
2021/07/30 18:50:31;;;;;;;4.90;4.22;;;33.10;23.10;;;;;;21162551;28;20098;-66
2021/07/30 19:00:33;;;;;;;6.05;4.10;;;33.00;22.20;;;;;;21163526;28;20047;-68
2021/07/30 19:10:35;;;;;;;5.75;4.03;;;32.70;22.30;;;;;;21161139;28;20051;-67
2021/07/30 19:20:37;;;;;;;3.97;3.58;;;32.50;22.40;;;;;;21160426;28;20409;-71
2021/07/30 19:30:39;;;;;;;6.10;3.40;;;32.30;22.40;;;;;;21160070;28;20135;-66
2021/07/30 19:40:41;;;;;;;6.63;3.80;;;32.10;22.90;;;;;;21166862;28;20391;-68
2021/07/30 19:50:43;;;;;;;5.55;3.42;;;32.00;23.70;;;;;;21157366;28;20078;-69
2021/07/30 20:00:54;;;;;;;5.53;3.05;;;31.80;23.80;;;;;;21157527;28;20055;-68
2021/07/30 20:10:56;;;;;;;7.70;6.10;;;31.70;23.80;;;;;;21175811;28;20044;-68
2021/07/30 20:20:58;;;;;;;8.02;3.20;;;31.50;24.00;;;;;;21176113;28;20055;-65
2021/07/30 20:30:59;;;;;;;5.38;3.72;;;31.20;23.90;;;;;;21175322;28;20047;-66
2021/07/30 20:41:01;;;;;;;7.05;3.20;;;31.10;24.70;;;;;;21174173;28;20502;-67
2021/07/30 20:51:03;;;;;;;4.57;3.08;;;30.90;24.60;;;;;;21172796;28;20044;-68
2021/07/30 21:01:05;;;;;;;5.40;2.60;;;30.70;25.00;;;;;;21171991;28;20056;-67
2021/07/30 21:11:08;;;;;;;5.93;2.90;;;30.60;25.40;;;;;;21172131;28;20044;-69
2021/07/30 21:21:10;;;;;;;5.15;2.97;;;30.40;26.00;;;;;;21153187;28;20051;-68
2021/07/30 21:31:12;;;;;;;3.88;2.78;;;30.20;26.30;;;;;;21170290;28;20051;-68
2021/07/30 21:41:13;;;;;;;4.68;3.10;;;30.10;26.50;;;;;;21168933;28;20492;-67
2021/07/30 21:51:15;;;;;;;3.95;3.13;;;29.90;25.90;;;;;;21168364;28;20048;-67
2021/07/30 22:01:18;;;;;;;3.10;2.22;;;29.80;25.70;;;;;;21167446;28;20051;-67
2021/07/30 22:11:24;;;;;;;3.25;2.50;;;29.60;25.80;;;;;;21167969;28;20050;-67
2021/07/30 22:21:25;;;;;;;3.58;2.08;;;29.50;25.70;;;;;;21167396;28;20139;-69
2021/07/30 22:31:28;;;;;;;3.47;3.00;;;29.40;25.20;;;;;;21165628;28;20059;-68
2021/07/30 22:41:47;;;;;;;3.65;2.13;;;29.30;25.30;;;;;;21165274;28;20048;-65
2021/07/30 22:51:48;;;;;;;4.97;3.25;;;29.20;25.20;;;;;;21164800;28;20047;-66
2021/07/30 23:01:50;;;;;;;4.72;2.47;;;29.10;24.90;;;;;;21164743;28;20503;-68
2021/07/30 23:11:51;;;;;;;2.63;2.05;;;29.00;25.20;;;;;;21145055;28;20040;-70
2021/07/30 23:21:53;;;;;;;2.75;2.00;;;28.90;25.90;;;;;;21162593;28;20059;-67
2021/07/30 23:31:54;;;;;;;2.85;2.17;;;28.70;26.10;;;;;;21163041;28;20047;-66
2021/07/30 23:41:58;;;;;;;5.30;2.75;;;28.60;26.70;;;;;;21161593;28;20047;-66
2021/07/30 23:52:00;;;;;;;5.13;3.78;;;28.60;26.90;;;;;;21161777;28;20044;-68
